»·PEaware :: N359W KSJC-KMFR

N359W :: KSJC-KMFR

FLIGHT INFORMATION

Flight Status: Arrived
Operator: Privately registered:
United States
More flights under this callsign
Pilot: Anonymous 18613 (18613)
Aircraft: BEECH AIRCRAFT A90-E90 KING AIR
(BE9L)
More flights by this aircraft type
Origin: KSJC Mineta San Jose Intl
United States
Destination: KMFR Rogue Valley Intl-Medford
United States
More flights between these airports :: More routes between these airports
Route: +SUNOL9 SAC V23 FJS V121 OED
File this flight plan on PilotEdge
Remarks:
Altitude:
(Current/Filed)
12,000ft
Speed:
(Current/Filed)
215kts
Departed: 07-Aug-18 12:21 PM
Arrived: 07-Aug-18 02:02 PM
Distance/Time
Traveled:
304nm/1:41
Distance/Time
To Go:
Arrived

Flight Plot

Page will automatically refresh every two minutes.

Flight plan parsing failed; only flown route is shown


Map Options




Map Legend


Flown Route
Filed Route
Departure Airport
Arrival Airport
Navaid (VOR, NDB)
Fix

Horizontal Profiles

Position Reports

Time Latitude Longitude Heading Altitude Ground
Speed
07-Aug-18 12:07 37.352705 -121.922284 49 65ft 0kts
07-Aug-18 12:08 37.352705 -121.922284 49 65ft 0kts
07-Aug-18 12:09 37.352705 -121.922284 49 65ft 0kts
07-Aug-18 12:10 37.352705 -121.922284 49 65ft 0kts
07-Aug-18 12:11 37.352705 -121.922284 49 65ft 0kts
07-Aug-18 12:12 37.352705 -121.922284 49 65ft 0kts
07-Aug-18 12:13 37.352705 -121.922284 49 65ft 0kts
07-Aug-18 12:14 37.352705 -121.922284 49 65ft 0kts
07-Aug-18 12:15 37.352705 -121.922284 49 65ft 0kts
07-Aug-18 12:16 37.352719 -121.922264 49 65ft 3kts
07-Aug-18 12:17 37.352107 -121.919766 59 65ft 0kts
07-Aug-18 12:18 37.352107 -121.919766 59 65ft 0kts
07-Aug-18 12:19 37.352107 -121.919766 59 65ft 0kts
07-Aug-18 12:20 37.352107 -121.919766 59 65ft 0kts
07-Aug-18 12:21 37.352759 -121.919020 318 65ft 8kts
07-Aug-18 12:22 37.375878 -121.944389 319 900ft 151kts
07-Aug-18 12:23 37.409132 -121.949769 50 2726ft 155kts
07-Aug-18 12:24 37.444312 -121.905320 24 3119ft 205kts
07-Aug-18 12:25 37.486190 -121.880447 24 4963ft 186kts
07-Aug-18 12:26 37.538178 -121.849896 24 4956ft 219kts
07-Aug-18 12:27 37.594054 -121.817024 23 4954ft 224kts
07-Aug-18 12:28 37.653198 -121.795724 12 5543ft 195kts
07-Aug-18 12:29 37.697540 -121.782215 13 7492ft 163kts
07-Aug-18 12:30 37.742101 -121.768583 13 8730ft 167kts
07-Aug-18 12:31 37.787843 -121.754571 14 9865ft 171kts
07-Aug-18 12:32 37.834430 -121.740286 14 10891ft 175kts
07-Aug-18 12:33 37.882055 -121.725665 14 11828ft 178kts
07-Aug-18 12:34 37.934634 -121.709484 14 11944ft 209kts
07-Aug-18 12:35 37.992901 -121.691527 14 11927ft 220kts
07-Aug-18 12:36 38.052774 -121.673050 14 11909ft 223kts
07-Aug-18 12:37 38.111642 -121.654858 14 11980ft 220kts
07-Aug-18 12:38 38.171279 -121.636398 14 12011ft 222kts
07-Aug-18 12:39 38.231344 -121.617772 14 12011ft 223kts
07-Aug-18 12:40 38.291422 -121.599110 14 12015ft 223kts
07-Aug-18 12:41 38.351602 -121.580385 14 12019ft 223kts
07-Aug-18 12:42 38.411649 -121.561670 14 12022ft 223kts
07-Aug-18 12:43 38.472210 -121.561068 347 12023ft 224kts
07-Aug-18 12:44 38.532771 -121.579948 346 12023ft 224kts
07-Aug-18 12:45 38.593287 -121.599168 346 12022ft 224kts
07-Aug-18 12:46 38.653831 -121.618459 346 12017ft 225kts
07-Aug-18 12:47 38.714542 -121.637840 346 12011ft 225kts
07-Aug-18 12:48 38.775197 -121.657237 346 12009ft 225kts
07-Aug-18 12:49 38.835730 -121.676629 346 12008ft 225kts
07-Aug-18 12:50 38.896351 -121.696090 346 12010ft 225kts
07-Aug-18 12:51 38.957020 -121.715601 347 12014ft 226kts
07-Aug-18 12:52 39.018317 -121.735333 347 12017ft 229kts
07-Aug-18 12:53 39.067480 -121.751188 347 12019ft 233kts
07-Aug-18 12:54 39.124048 -121.769465 347 12017ft 234kts
07-Aug-18 12:55 39.187085 -121.789868 347 12016ft 232kts
07-Aug-18 12:56 39.248921 -121.809919 347 12019ft 229kts
07-Aug-18 12:57 39.310651 -121.829971 347 12023ft 229kts
07-Aug-18 12:58 39.370785 -121.857780 339 12026ft 230kts
07-Aug-18 12:59 39.430090 -121.888232 339 12027ft 230kts
07-Aug-18 13:00 39.489405 -121.918807 339 12027ft 230kts
07-Aug-18 13:01 39.548891 -121.949532 339 12027ft 230kts
07-Aug-18 13:02 39.608123 -121.980183 339 12027ft 230kts
07-Aug-18 13:03 39.667653 -122.011045 339 12027ft 230kts
07-Aug-18 13:04 39.727016 -122.041878 339 12028ft 230kts
07-Aug-18 13:05 39.786363 -122.072760 339 12028ft 230kts
07-Aug-18 13:06 39.845736 -122.103714 339 12028ft 230kts
07-Aug-18 13:07 39.904945 -122.134639 339 12022ft 230kts
07-Aug-18 13:08 39.964218 -122.165656 339 12015ft 230kts
07-Aug-18 13:09 40.023406 -122.196687 339 12010ft 230kts
07-Aug-18 13:10 40.082680 -122.227820 339 12010ft 229kts
07-Aug-18 13:11 40.141276 -122.253836 344 11999ft 230kts
07-Aug-18 13:12 40.202323 -122.279147 344 11996ft 230kts
07-Aug-18 13:13 40.263533 -122.304546 344 11987ft 231kts
07-Aug-18 13:14 40.324734 -122.329986 344 11975ft 231kts
07-Aug-18 13:15 40.385710 -122.355381 344 11968ft 231kts
07-Aug-18 13:16 40.446817 -122.380879 344 11964ft 231kts
07-Aug-18 13:17 40.507857 -122.406398 344 11964ft 231kts
07-Aug-18 13:18 40.569117 -122.432058 344 11964ft 231kts
07-Aug-18 13:19 40.630040 -122.457625 344 11964ft 231kts
07-Aug-18 13:20 40.691310 -122.483388 344 11964ft 231kts
07-Aug-18 13:21 40.752364 -122.509109 344 11964ft 231kts
07-Aug-18 13:22 40.813495 -122.534913 344 11965ft 231kts
07-Aug-18 13:23 40.874606 -122.560759 344 11965ft 231kts
07-Aug-18 13:24 40.935733 -122.586661 344 11965ft 231kts
07-Aug-18 13:25 40.997418 -122.612835 343 11873ft 232kts
07-Aug-18 13:26 41.058080 -122.638641 342 11941ft 228kts
07-Aug-18 13:27 41.114755 -122.662800 341 12002ft 225kts
07-Aug-18 13:28 41.174223 -122.688202 341 12017ft 224kts
07-Aug-18 13:29 41.233312 -122.713482 341 12017ft 225kts
07-Aug-18 13:30 41.292917 -122.739029 341 12017ft 225kts
07-Aug-18 13:31 41.352432 -122.764588 341 12018ft 225kts
07-Aug-18 13:32 41.411859 -122.790158 341 12018ft 225kts
07-Aug-18 13:33 41.471086 -122.816721 339 12018ft 225kts
07-Aug-18 13:34 41.529921 -122.844804 339 12018ft 225kts
07-Aug-18 13:35 41.588766 -122.872983 339 12018ft 225kts
07-Aug-18 13:36 41.647624 -122.901226 339 12018ft 225kts
07-Aug-18 13:37 41.706724 -122.929641 339 12018ft 226kts
07-Aug-18 13:38 41.765925 -122.958161 339 12018ft 226kts
07-Aug-18 13:39 41.825233 -122.986788 339 12012ft 227kts
07-Aug-18 13:40 41.884742 -123.015569 339 12025ft 227kts
07-Aug-18 13:41 41.930998 -123.037979 339 12045ft 228kts
07-Aug-18 13:42 41.990880 -123.067044 339 12035ft 230kts
07-Aug-18 13:43 42.050954 -123.096260 339 12030ft 230kts
07-Aug-18 13:44 42.109904 -123.093376 20 12027ft 230kts
07-Aug-18 13:45 42.168180 -123.065264 21 12026ft 229kts
07-Aug-18 13:46 42.227573 -123.036334 21 12026ft 228kts
07-Aug-18 13:47 42.287296 -123.007184 21 12026ft 228kts
07-Aug-18 13:48 42.347684 -123.000428 344 11725ft 236kts
07-Aug-18 13:49 42.410506 -123.022603 344 10322ft 231kts
07-Aug-18 13:50 42.470818 -123.049776 334 8767ft 231kts
07-Aug-18 13:51 42.526769 -123.082918 334 8024ft 203kts
07-Aug-18 13:52 42.576659 -123.111920 334 8026ft 190kts
07-Aug-18 13:53 42.624900 -123.139723 334 8027ft 188kts
07-Aug-18 13:54 42.672889 -123.167360 335 8027ft 187kts
07-Aug-18 13:55 42.707300 -123.123264 65 8027ft 194kts
07-Aug-18 13:56 42.704318 -123.055696 113 8028ft 190kts
07-Aug-18 13:57 42.662055 -123.020089 167 7243ft 204kts
07-Aug-18 13:58 42.607379 -122.995246 160 6119ft 211kts
07-Aug-18 13:59 42.552317 -122.966515 159 4930ft 214kts
07-Aug-18 14:00 42.496819 -122.937281 159 3726ft 214kts
07-Aug-18 14:01 42.442081 -122.908503 159 2551ft 193kts
07-Aug-18 14:02 42.409080 -122.891162 158 1858ft 123kts
07-Aug-18 14:03 42.376959 -122.874328 176 1336ft 25kts
07-Aug-18 14:04 42.376202 -122.874925 259 1336ft 0kts
07-Aug-18 14:05 42.371430 -122.875899 293 1336ft 4kts
07-Aug-18 14:06 42.371441 -122.875934 294 1336ft 0kts

Navigation Log

Ident Type
Flight plan parsing failed, navigation log unavailable